createdAt,value
2019-04-05T00:05:04.791Z,23.4
2019-04-05T00:20:05.039Z,23.4
2019-04-05T00:35:02.999Z,23.4
2019-04-05T00:50:03.276Z,23.4
2019-04-05T01:05:03.521Z,23.4
2019-04-05T01:20:03.869Z,23.4
2019-04-05T01:35:02.958Z,23.3
2019-04-05T01:50:03.432Z,23.2
2019-04-05T02:05:03.329Z,23.1
2019-04-05T02:20:03.902Z,23
2019-04-05T02:35:02.663Z,23
2019-04-05T02:50:04.658Z,22.9
2019-04-05T03:05:05.203Z,22.9
2019-04-05T03:20:03.196Z,22.9
2019-04-05T03:35:03.198Z,22.9
2019-04-05T03:50:03.767Z,22.8
2019-04-05T04:05:04.571Z,22.8
2019-04-05T04:20:04.153Z,22.8
2019-04-05T04:35:03.225Z,22.8
2019-04-05T04:50:03.402Z,22.8
2019-04-05T05:05:04.800Z,22.8
2019-04-05T05:20:05.528Z,22.8
2019-04-05T05:35:06.327Z,22.8
2019-04-05T05:50:03.493Z,22.9
2019-04-05T06:05:06.161Z,23
2019-04-05T06:20:03.971Z,23.1
2019-04-05T06:35:02.962Z,23.2
2019-04-05T06:50:03.901Z,23.3
2019-04-05T07:05:03.964Z,23.4
2019-04-05T07:20:04.134Z,23.5
2019-04-05T07:35:03.234Z,23.5
2019-04-05T07:50:04.363Z,23.6
2019-04-05T08:05:06.388Z,23.7
2019-04-05T08:20:05.814Z,23.8
2019-04-05T08:35:05.074Z,23.9
2019-04-05T08:50:03.905Z,24
2019-04-05T09:05:03.467Z,24.1
2019-04-05T09:20:03.933Z,24.2
2019-04-05T09:35:03.420Z,24.2
2019-04-05T09:50:04.332Z,24.3
2019-04-05T10:05:03.987Z,24.3
2019-04-05T10:20:03.737Z,24.4
2019-04-05T10:35:03.069Z,24.4
2019-04-05T10:50:03.745Z,24.5
2019-04-05T11:05:03.507Z,24.5
2019-04-05T11:20:14.894Z,24.6
2019-04-05T11:35:05.261Z,24.6
2019-04-05T11:50:04.158Z,24.6
2019-04-05T12:05:05.666Z,24.6
2019-04-05T12:20:04.758Z,24.6
2019-04-05T12:35:08.177Z,24.6
2019-04-05T12:50:05.118Z,24.6
2019-04-05T13:05:04.409Z,24.7
2019-04-05T13:20:04.880Z,24.7
2019-04-05T13:35:03.343Z,24.7
2019-04-05T13:50:04.641Z,24.6
2019-04-05T14:05:04.463Z,24.6
2019-04-05T14:20:05.709Z,24.5
2019-04-05T14:35:07.871Z,24.4
2019-04-05T14:50:05.882Z,24.3
2019-04-05T15:05:05.322Z,24.3
2019-04-05T15:20:04.974Z,24.2
2019-04-05T15:35:04.676Z,24.2
2019-04-05T15:50:04.830Z,24.1
2019-04-05T16:05:03.782Z,24
2019-04-05T16:20:06.550Z,24
2019-04-05T16:35:04.585Z,23.9
2019-04-05T16:50:04.624Z,23.7
2019-04-05T17:05:05.292Z,23.7
2019-04-05T17:20:03.511Z,23.6
2019-04-05T17:35:04.520Z,23.4
2019-04-05T17:50:04.769Z,23.4
2019-04-05T18:05:05.351Z,23.3
2019-04-05T18:20:04.089Z,23.2
2019-04-05T18:35:04.008Z,23.1
2019-04-05T18:50:04.352Z,23.1
2019-04-05T19:05:03.544Z,23.1
2019-04-05T19:20:04.809Z,23
2019-04-05T19:50:06.539Z,23
2019-04-05T20:05:03.818Z,23
2019-04-05T20:20:05.888Z,23
2019-04-05T20:35:03.902Z,22.9
2019-04-05T20:50:03.771Z,22.9
2019-04-05T21:05:05.072Z,22.9
2019-04-05T21:20:03.419Z,23
2019-04-05T21:35:05.054Z,23.1
2019-04-05T21:50:03.604Z,23.2
2019-04-05T22:05:03.942Z,23.3
2019-04-05T22:20:05.277Z,23.3
2019-04-05T22:35:03.614Z,23.3
2019-04-05T22:50:03.889Z,23.3
2019-04-05T23:05:03.032Z,23.3
2019-04-05T23:20:03.123Z,23.3
2019-04-05T23:35:03.616Z,23.3
2019-04-05T23:50:04.340Z,23.3
